Аэропорт: Омск-Центральный. Омск

ICAO: UNOO

METAR:
2020-10-19 23:00:00
UNOO 192300Z 25004MPS 9999 BKN033 10/01 Q1013 R25/CLRD60 NOSIG RMK QFE752
METAR:
2020-10-19 19:58:00
TAF UNOO 191958Z 1921/2021 24006G14MPS 9999 SCT020CB BKN030 BECMG 2009/2010 19003G10MPS TEMPO 2012/2018 21005G12MPS